Time;durP1;ratioP1;P1;durP2;ratioP2;P2;SDS_P1;SDS_P2;PMS_P1;PMS_P2;Temp;Humidity;BMP_temperature;BMP_pressure;BME280_temperature;BME280_humidity;BME280_pressure;Samples;Min_cycle;Max_cycle;Signal;HPM_P1;HPM_P2
2021/12/06 00:02:13;;;;;;;14.77;4.88;;;5.10;99.90;;;;;;5067186;28;20048;-77
2021/12/06 00:04:42;;;;;;;16.05;5.38;;;5.10;99.90;;;;;;5040546;28;20055;-77
2021/12/06 00:07:17;;;;;;;18.20;8.50;;;5.50;99.90;;;;;;5083655;28;20044;-78
2021/12/06 00:09:45;;;;;;;14.45;5.72;;;5.20;99.90;;;;;;5070415;28;20103;-77
2021/12/06 00:12:15;;;;;;;12.27;4.78;;;5.20;99.90;;;;;;5051939;28;20051;-78
2021/12/06 00:14:47;;;;;;;11.40;5.18;;;5.40;99.90;;;;;;5088300;28;20218;-79
2021/12/06 00:17:16;;;;;;;17.52;6.60;;;5.30;99.90;;;;;;5051615;28;20049;-78
2021/12/06 00:19:45;;;;;;;25.48;6.50;;;5.20;99.90;;;;;;5068954;28;20044;-78
2021/12/06 00:22:22;;;;;;;12.23;5.43;;;5.30;99.90;;;;;;5067580;28;20055;-80
2021/12/06 00:24:57;;;;;;;14.63;6.25;;;7.30;99.90;;;;;;5061701;28;20048;-78
2021/12/06 00:27:26;;;;;;;27.63;5.63;;;5.20;99.90;;;;;;5065842;28;20058;-79
2021/12/06 00:29:54;;;;;;;15.30;5.50;;;5.70;99.90;;;;;;5052846;28;20057;-78
2021/12/06 00:32:24;;;;;;;15.00;6.35;;;6.30;99.90;;;;;;5032162;28;20049;-76
2021/12/06 00:34:53;;;;;;;10.75;4.60;;;5.20;99.90;;;;;;5049681;28;20053;-78
2021/12/06 00:37:29;;;;;;;19.75;6.05;;;5.20;99.90;;;;;;5052607;28;20040;-76
2021/12/06 00:40:06;;;;;;;15.30;6.15;;;5.20;99.90;;;;;;5039844;28;20056;-78
2021/12/06 00:42:36;;;;;;;16.70;8.13;;;5.20;99.90;;;;;;5072246;28;20048;-78
2021/12/06 00:45:08;;;;;;;14.85;6.28;;;5.30;99.90;;;;;;5087731;28;20059;-77
2021/12/06 00:47:37;;;;;;;19.38;7.22;;;5.30;99.90;;;;;;5071820;28;20044;-79
2021/12/06 00:50:07;;;;;;;10.82;4.95;;;5.70;99.90;;;;;;5069539;28;20048;-78
2021/12/06 00:52:35;;;;;;;21.50;5.93;;;5.30;99.90;;;;;;5047653;28;20047;-78
2021/12/06 00:55:06;;;;;;;24.40;6.43;;;3.60;99.90;;;;;;5047234;28;20041;-78
2021/12/06 00:57:38;;;;;;;22.83;6.45;;;5.30;99.90;;;;;;5047509;28;20037;-77
2021/12/06 01:00:13;;;;;;;18.77;8.38;;;5.30;99.90;;;;;;5035197;28;20274;-78
2021/12/06 01:02:43;;;;;;;14.55;5.65;;;5.30;99.90;;;;;;5086127;28;20066;-77
2021/12/06 01:05:13;;;;;;;21.15;6.40;;;6.30;99.90;;;;;;5036152;28;20079;-78
2021/12/06 01:07:43;;;;;;;18.73;7.07;;;5.60;99.90;;;;;;5069351;28;20052;-78
2021/12/06 01:10:13;;;;;;;18.10;5.82;;;5.20;99.90;;;;;;5052472;28;20052;-77
2021/12/06 01:12:42;;;;;;;40.55;9.68;;;5.10;99.90;;;;;;5068338;28;20321;-79
2021/12/06 01:15:16;;;;;;;34.85;7.70;;;6.50;99.90;;;;;;5068208;28;20060;-77
2021/12/06 01:17:46;;;;;;;25.80;7.65;;;5.00;99.90;;;;;;5068989;28;20036;-80
2021/12/06 01:20:20;;;;;;;21.38;10.20;;;5.00;99.90;;;;;;5035063;28;20055;-77
2021/12/06 01:22:56;;;;;;;34.13;7.90;;;5.00;99.90;;;;;;5068836;28;20048;-79
2021/12/06 01:25:53;;;;;;;17.40;6.93;;;5.00;99.90;;;;;;5054967;28;20039;-77
2021/12/06 01:29:03;;;;;;;19.05;8.50;;;4.90;99.90;;;;;;5067772;28;20042;-78
2021/12/06 01:31:56;;;;;;;15.38;6.72;;;5.00;99.90;;;;;;5084698;28;20045;-79
2021/12/06 01:40:21;;;;;;;18.30;7.60;;;4.80;99.90;;;;;;5069839;28;20071;-79
2021/12/06 01:42:50;;;;;;;15.85;6.85;;;3.50;99.90;;;;;;5070102;28;20040;-78
2021/12/06 01:45:19;;;;;;;20.98;7.60;;;4.80;99.90;;;;;;5070725;28;20056;-79
2021/12/06 01:47:49;;;;;;;20.38;8.02;;;4.80;99.90;;;;;;5053177;28;20044;-79
2021/12/06 01:50:38;;;;;;;21.10;8.15;;;4.80;99.90;;;;;;5054725;28;20186;-76
2021/12/06 01:53:09;;;;;;;24.85;8.45;;;4.90;99.90;;;;;;5056055;28;20059;-78
2021/12/06 01:55:39;;;;;;;19.50;9.15;;;4.40;99.90;;;;;;5049561;28;20049;-78
2021/12/06 01:58:10;;;;;;;22.50;8.75;;;4.70;99.90;;;;;;5074781;28;20533;-79
2021/12/06 02:00:39;;;;;;;22.40;7.00;;;6.30;99.90;;;;;;5049165;28;20049;-79
2021/12/06 02:03:13;;;;;;;24.95;8.85;;;5.90;99.90;;;;;;5035069;28;20059;-79
2021/12/06 02:05:44;;;;;;;13.75;7.88;;;4.70;99.90;;;;;;5052540;28;20049;-79
2021/12/06 02:08:16;;;;;;;31.38;8.73;;;4.50;99.90;;;;;;5051747;28;20059;-78
2021/12/06 02:10:45;;;;;;;21.00;8.45;;;4.60;99.90;;;;;;5067953;28;20045;-79
2021/12/06 02:13:20;;;;;;;21.00;7.97;;;6.50;99.90;;;;;;5052163;28;20043;-78
2021/12/06 02:15:52;;;;;;;21.38;6.95;;;4.90;99.90;;;;;;5035376;28;20062;-78
2021/12/06 02:21:27;;;;;;;16.85;7.40;;;5.50;99.90;;;;;;5067886;28;20037;-78
2021/12/06 02:24:06;;;;;;;19.98;10.18;;;4.80;99.90;;;;;;5052953;28;20447;-79
2021/12/06 02:26:45;;;;;;;27.23;9.05;;;4.80;99.90;;;;;;5054453;28;20049;-79
2021/12/06 02:29:14;;;;;;;15.77;8.73;;;4.80;99.90;;;;;;5036970;28;20075;-80
2021/12/06 02:31:43;;;;;;;20.58;8.27;;;4.80;99.90;;;;;;5052529;28;20289;-79
2021/12/06 02:34:11;;;;;;;21.55;8.15;;;4.90;99.90;;;;;;5036587;28;20044;-81
2021/12/06 02:36:40;;;;;;;19.80;6.43;;;6.40;99.90;;;;;;5052588;28;20060;-79
2021/12/06 02:39:10;;;;;;;19.25;8.18;;;4.80;99.90;;;;;;5069571;28;20053;-79
2021/12/06 02:41:39;;;;;;;19.92;7.93;;;4.80;99.90;;;;;;5069374;28;20053;-80
2021/12/06 02:44:10;;;;;;;20.70;8.40;;;3.70;99.90;;;;;;5067670;28;20048;-79
2021/12/06 02:46:39;;;;;;;31.60;11.00;;;4.90;99.90;;;;;;5050876;28;20056;-79
2021/12/06 02:49:11;;;;;;;21.88;8.45;;;4.90;99.90;;;;;;5054561;28;20048;-78
2021/12/06 02:51:40;;;;;;;26.48;10.07;;;4.90;99.90;;;;;;5082518;28;20044;-80
2021/12/06 02:54:10;;;;;;;21.08;9.55;;;4.80;99.90;;;;;;5069787;28;20064;-79
2021/12/06 02:56:51;;;;;;;30.67;9.13;;;4.90;99.90;;;;;;5032834;28;20059;-78
2021/12/06 02:59:25;;;;;;;21.63;8.75;;;4.80;99.90;;;;;;5050072;28;20053;-79
2021/12/06 03:02:02;;;;;;;25.15;9.13;;;4.80;99.90;;;;;;5033576;28;20589;-78
2021/12/06 03:04:32;;;;;;;25.80;11.45;;;4.70;99.90;;;;;;5050121;28;20052;-78
2021/12/06 03:07:01;;;;;;;23.25;9.18;;;4.80;99.90;;;;;;5014825;28;20054;-78
2021/12/06 03:09:34;;;;;;;19.20;9.13;;;4.60;99.90;;;;;;5061029;28;20040;-79
2021/12/06 03:12:05;;;;;;;22.73;10.02;;;5.00;99.90;;;;;;5038873;28;20040;-78
2021/12/06 03:14:40;;;;;;;24.50;11.13;;;4.80;99.90;;;;;;5023338;28;20045;-77
2021/12/06 03:17:14;;;;;;;31.42;12.90;;;4.80;99.90;;;;;;5019447;28;20052;-77
2021/12/06 03:19:44;;;;;;;22.02;10.73;;;4.80;99.90;;;;;;5047324;28;20064;-80
2021/12/06 03:22:14;;;;;;;28.50;13.82;;;4.70;99.90;;;;;;5046895;28;20056;-78
2021/12/06 03:24:45;;;;;;;29.85;16.35;;;6.80;99.90;;;;;;5030547;28;20045;-78
2021/12/06 03:27:15;;;;;;;28.27;13.68;;;4.80;99.90;;;;;;5031839;28;20048;-78
2021/12/06 03:29:45;;;;;;;32.27;13.43;;;4.80;99.90;;;;;;5046367;28;20055;-78
2021/12/06 03:32:14;;;;;;;27.13;13.25;;;3.40;99.90;;;;;;4688396;28;10000545;-77
2021/12/06 03:34:43;;;;;;;40.67;14.95;;;4.80;99.90;;;;;;5025700;28;20053;-78
2021/12/06 03:37:13;;;;;;;24.98;11.32;;;4.80;99.90;;;;;;5031366;28;20060;-79
2021/12/06 03:39:46;;;;;;;33.83;15.27;;;7.10;99.90;;;;;;5050191;28;20041;-77
2021/12/06 03:42:25;;;;;;;25.67;12.93;;;4.80;99.90;;;;;;5018928;28;20049;-78
2021/12/06 03:44:55;;;;;;;30.52;13.73;;;4.70;99.90;;;;;;5017636;28;20055;-76
2021/12/06 03:47:30;;;;;;;35.95;14.60;;;4.70;99.90;;;;;;5033721;28;20063;-79
2021/12/06 03:50:03;;;;;;;28.33;13.95;;;4.70;99.90;;;;;;5030707;28;20055;-78
2021/12/06 03:52:34;;;;;;;36.10;14.18;;;6.20;99.90;;;;;;5047755;28;20036;-79
2021/12/06 03:55:05;;;;;;;35.95;14.30;;;4.70;99.90;;;;;;5053416;28;20238;-77
2021/12/06 03:57:36;;;;;;;34.03;15.70;;;4.60;99.90;;;;;;5049505;28;20061;-80
2021/12/06 04:00:10;;;;;;;35.25;17.00;;;4.60;99.90;;;;;;5040682;28;20063;-79
2021/12/06 04:02:44;;;;;;;34.22;16.95;;;4.50;99.90;;;;;;5051311;28;20044;-79
2021/12/06 04:05:15;;;;;;;31.58;15.43;;;5.30;99.90;;;;;;5051098;28;20053;-78
2021/12/06 04:07:45;;;;;;;31.83;15.23;;;4.60;99.90;;;;;;5049917;28;20044;-77
2021/12/06 04:10:14;;;;;;;39.57;18.43;;;4.50;99.90;;;;;;5066359;28;20072;-79
2021/12/06 04:12:45;;;;;;;42.78;17.90;;;4.50;99.90;;;;;;5033185;28;20120;-79
2021/12/06 04:15:14;;;;;;;34.95;18.10;;;4.50;99.90;;;;;;5067167;28;20048;-77
2021/12/06 04:17:43;;;;;;;31.60;16.50;;;4.40;99.90;;;;;;5066945;28;20033;-79
2021/12/06 04:20:13;;;;;;;35.70;17.58;;;3.60;99.90;;;;;;5051192;28;20045;-80
2021/12/06 04:22:42;;;;;;;37.35;18.92;;;5.40;99.90;;;;;;5067170;28;20032;-78
2021/12/06 04:25:12;;;;;;;35.45;16.35;;;4.40;99.90;;;;;;5067952;28;20051;-78
2021/12/06 04:27:43;;;;;;;40.22;20.23;;;4.30;99.90;;;;;;5050842;28;20053;-79
2021/12/06 04:30:13;;;;;;;44.67;18.77;;;4.20;99.90;;;;;;5065437;28;20059;-78
2021/12/06 04:32:42;;;;;;;37.65;18.48;;;4.20;99.90;;;;;;5068251;28;20589;-79
2021/12/06 04:35:11;;;;;;;31.67;17.92;;;4.30;99.90;;;;;;5052126;28;20478;-79
2021/12/06 04:37:40;;;;;;;41.40;18.95;;;4.20;99.90;;;;;;5050521;28;20064;-79
2021/12/06 04:40:12;;;;;;;50.55;19.90;;;4.20;99.90;;;;;;5052192;28;20040;-79
2021/12/06 04:42:41;;;;;;;44.10;19.05;;;5.90;99.90;;;;;;5068741;28;20052;-79
2021/12/06 04:45:12;;;;;;;39.58;22.35;;;4.70;99.90;;;;;;5068463;28;20063;-79
2021/12/06 04:47:42;;;;;;;;;;;4.70;99.90;;;;;;5067347;28;20052;-79
2021/12/06 04:50:12;;;;;;;42.17;19.92;;;4.20;99.90;;;;;;5067245;28;19925;-79
2021/12/06 04:52:41;;;;;;;36.95;20.55;;;4.20;99.90;;;;;;5067005;28;20051;-78
2021/12/06 04:55:34;;;;;;;42.00;18.87;;;4.20;99.90;;;;;;5049695;28;20528;-79
2021/12/06 04:58:04;;;;;;;41.22;18.55;;;4.20;99.90;;;;;;5049886;28;20643;-80
2021/12/06 05:00:37;;;;;;;51.28;24.45;;;4.20;99.90;;;;;;5066571;28;20047;-79
2021/12/06 05:03:07;;;;;;;37.65;19.75;;;3.60;99.90;;;;;;5051112;28;20048;-78
2021/12/06 05:05:42;;;;;;;45.25;22.48;;;4.10;99.90;;;;;;5050208;28;20052;-78
2021/12/06 05:08:21;;;;;;;41.28;21.17;;;4.30;99.90;;;;;;5052250;28;20505;-78
2021/12/06 05:10:53;;;;;;;42.20;21.02;;;4.10;99.90;;;;;;5036596;28;20041;-78
2021/12/06 05:13:23;;;;;;;49.72;22.30;;;4.10;99.90;;;;;;5068527;28;20055;-80
2021/12/06 05:15:51;;;;;;;47.30;23.23;;;4.20;99.90;;;;;;5071618;28;20048;-80
2021/12/06 05:18:27;;;;;;;43.45;19.75;;;4.10;99.90;;;;;;5071184;28;20058;-81
2021/12/06 05:20:56;;;;;;;33.55;18.63;;;5.40;99.90;;;;;;5070281;28;20050;-79
2021/12/06 05:23:25;;;;;;;45.97;22.90;;;6.40;99.90;;;;;;5071267;28;20055;-78
2021/12/06 05:25:54;;;;;;;51.22;25.60;;;4.20;99.90;;;;;;5037747;28;20054;-77
2021/12/06 05:28:26;;;;;;;43.92;23.08;;;4.20;99.90;;;;;;5046697;28;20047;-78
2021/12/06 05:30:57;;;;;;;51.33;24.67;;;4.40;99.90;;;;;;5053450;28;20064;-78
2021/12/06 05:33:30;;;;;;;49.97;25.95;;;4.20;99.90;;;;;;5068740;28;20058;-79
2021/12/06 05:36:26;;;;;;;54.80;21.50;;;4.20;99.90;;;;;;5064852;28;20058;-77
2021/12/06 05:38:55;;;;;;;46.55;20.05;;;4.10;99.90;;;;;;4718282;28;10000615;-78
2021/12/06 05:41:23;;;;;;;45.30;20.67;;;4.20;99.90;;;;;;5049934;28;20057;-79
2021/12/06 05:43:52;;;;;;;49.80;23.40;;;4.20;99.90;;;;;;5045173;28;20053;-77
2021/12/06 05:46:20;;;;;;;46.25;21.20;;;5.80;99.90;;;;;;5065559;28;20056;-79
2021/12/06 05:48:48;;;;;;;42.20;20.77;;;4.70;99.90;;;;;;5085559;28;20047;-79
2021/12/06 05:51:17;;;;;;;51.78;23.55;;;6.20;99.90;;;;;;5051395;28;20056;-79
2021/12/06 05:53:46;;;;;;;42.53;22.02;;;4.20;99.90;;;;;;5069323;28;20051;-78
2021/12/06 05:56:15;;;;;;;58.33;23.20;;;4.20;99.90;;;;;;5054125;28;20062;-79
2021/12/06 05:58:43;;;;;;;49.67;20.45;;;4.50;99.90;;;;;;5024135;28;20058;-78
2021/12/06 06:01:13;;;;;;;48.17;23.45;;;5.20;99.90;;;;;;5089017;28;20036;-80
2021/12/06 06:03:46;;;;;;;49.97;25.42;;;4.30;99.90;;;;;;5052684;28;20045;-78
2021/12/06 06:06:16;;;;;;;39.33;20.85;;;4.30;99.90;;;;;;5070360;28;20051;-77
2021/12/06 06:08:43;;;;;;;51.65;21.60;;;4.30;99.90;;;;;;5063801;28;20052;-78
2021/12/06 06:11:15;;;;;;;54.78;23.40;;;4.40;99.90;;;;;;5036313;28;20045;-79
2021/12/06 06:13:45;;;;;;;49.63;22.33;;;4.10;99.90;;;;;;5051827;28;20047;-80
2021/12/06 06:16:19;;;;;;;51.03;24.33;;;4.30;99.90;;;;;;5079511;28;20053;-77
2021/12/06 06:18:49;;;;;;;53.22;23.60;;;4.30;99.90;;;;;;5051861;28;20052;-80
2021/12/06 06:21:18;;;;;;;61.95;22.05;;;4.20;99.90;;;;;;5067590;28;20036;-79
2021/12/06 06:23:47;;;;;;;49.28;23.95;;;4.20;99.90;;;;;;5084918;28;20048;-79
2021/12/06 06:26:15;;;;;;;55.22;22.80;;;4.20;99.90;;;;;;5068373;28;20048;-79
2021/12/06 06:28:43;;;;;;;45.60;22.33;;;4.20;99.90;;;;;;5050943;28;20052;-78
2021/12/06 06:31:12;;;;;;;51.38;23.35;;;4.20;99.90;;;;;;5050980;28;20052;-80
2021/12/06 06:33:41;;;;;;;46.58;23.35;;;4.60;99.90;;;;;;5051306;28;20048;-78
2021/12/06 06:36:09;;;;;;;40.20;22.98;;;4.30;99.90;;;;;;5050273;28;20067;-79
2021/12/06 06:38:37;;;;;;;46.75;23.73;;;4.30;99.90;;;;;;5048606;28;20048;-78
2021/12/06 06:41:06;;;;;;;52.35;22.73;;;6.00;99.90;;;;;;5031496;28;20128;-80
2021/12/06 06:43:40;;;;;;;49.60;23.27;;;4.30;99.90;;;;;;5060294;28;20062;-77
2021/12/06 06:46:09;;;;;;;49.08;22.02;;;4.40;99.90;;;;;;5054133;28;20059;-78
2021/12/06 06:48:37;;;;;;;49.20;23.85;;;4.30;99.90;;;;;;5069077;28;20044;-79
2021/12/06 06:51:08;;;;;;;50.47;21.83;;;4.60;99.90;;;;;;5086886;28;20057;-78
2021/12/06 06:53:36;;;;;;;51.05;25.83;;;6.30;99.90;;;;;;5053373;28;20052;-78
2021/12/06 06:56:06;;;;;;;46.55;23.08;;;4.40;99.90;;;;;;5074776;28;20303;-79
2021/12/06 06:58:34;;;;;;;44.55;22.75;;;6.30;99.90;;;;;;5041745;28;20052;-79
2021/12/06 07:01:03;;;;;;;46.67;20.55;;;6.70;99.90;;;;;;5054118;28;20059;-78
2021/12/06 07:03:32;;;;;;;46.95;20.80;;;4.40;99.90;;;;;;5048889;28;20057;-79
2021/12/06 07:06:02;;;;;;;45.03;22.60;;;4.40;99.90;;;;;;5056214;28;20755;-80
2021/12/06 07:08:31;;;;;;;48.17;24.20;;;4.40;99.90;;;;;;5051154;28;20053;-79
2021/12/06 07:11:05;;;;;;;62.65;20.75;;;5.20;99.90;;;;;;5057508;28;20041;-81
2021/12/06 07:13:37;;;;;;;50.55;21.88;;;4.40;99.90;;;;;;5046861;28;20052;-80
2021/12/06 07:16:07;;;;;;;44.05;22.20;;;4.80;99.90;;;;;;5049287;28;20059;-79
2021/12/06 07:18:37;;;;;;;41.00;20.10;;;4.30;99.90;;;;;;5033487;28;20061;-79
2021/12/06 07:21:05;;;;;;;47.42;21.92;;;4.40;99.90;;;;;;5067840;28;20055;-79
2021/12/06 07:23:38;;;;;;;48.97;22.65;;;4.30;99.90;;;;;;5046064;28;20040;-81
2021/12/06 07:26:12;;;;;;;44.08;24.38;;;4.50;99.90;;;;;;5084325;28;20055;-79
2021/12/06 07:28:41;;;;;;;47.60;22.20;;;4.40;99.90;;;;;;5050332;28;20549;-77
2021/12/06 07:31:14;;;;;;;45.88;22.08;;;5.50;99.90;;;;;;5066901;28;20056;-78
2021/12/06 07:33:45;;;;;;;39.72;21.05;;;4.30;99.90;;;;;;5083845;28;20044;-81
2021/12/06 07:36:22;;;;;;;44.78;22.98;;;4.30;99.90;;;;;;5069805;28;20054;-81
2021/12/06 07:38:55;;;;;;;46.30;22.67;;;4.40;99.90;;;;;;5068870;28;20513;-79
2021/12/06 07:41:28;;;;;;;46.63;21.10;;;2.80;99.90;;;;;;5067498;28;20044;-80
2021/12/06 07:43:58;;;;;;;52.50;23.73;;;4.20;99.90;;;;;;5068946;28;20040;-79
2021/12/06 07:46:28;;;;;;;46.05;21.15;;;4.20;99.90;;;;;;5051448;28;20276;-79
2021/12/06 07:48:57;;;;;;;38.53;18.92;;;2.70;99.90;;;;;;5049330;28;20048;-78
2021/12/06 07:56:52;;;;;;;46.80;21.13;;;4.50;99.90;;;;;;4985920;28;20053;-83
2021/12/06 08:01:11;;;;;;;;;;;;;;;;;;;;;
2021/12/06 08:09:48;;;;;;;40.53;17.50;;;4.00;99.90;;;;;;4875623;29;20106;-84
2021/12/06 08:12:24;;;;;;;36.38;17.40;;;4.30;99.90;;;;;;4858397;29;20053;-83
2021/12/06 08:16:26;;;;;;;34.72;15.70;;;4.90;99.90;;;;;;4880071;29;20061;-81
2021/12/06 08:19:45;;;;;;;41.95;17.67;;;2.90;99.90;;;;;;4872270;29;20067;-81
2021/12/06 08:23:00;;;;;;;;;;;;;;;;;;;;;
2021/12/06 08:26:22;;;;;;;36.47;14.88;;;4.40;99.90;;;;;;4859867;29;20056;-81
2021/12/06 08:30:32;;;;;;;;;;;;;;;;;;;;;
2021/12/06 08:37:27;;;;;;;30.17;14.82;;;5.60;99.90;;;;;;4949858;28;20572;-81
2021/12/06 08:41:30;;;;;;;27.42;12.63;;;5.20;99.90;;;;;;4893685;29;20043;-83
2021/12/06 08:45:31;;;;;;;;;;;;;;;;;;;;;
2021/12/06 08:49:52;;;;;;;;;;;;;;;;;;;;;
2021/12/06 08:57:40;;;;;;;;;;;;;;;;;;;;;
2021/12/06 09:14:06;;;;;;;18.65;8.43;;;5.10;99.90;;;;;;4930208;29;20044;-83
2021/12/06 09:18:37;;;;;;;;;;;;;;;;;;;;;
2021/12/06 09:22:47;;;;;;;20.75;9.07;;;5.10;99.90;;;;;;4860366;29;20053;-83
2021/12/06 09:26:17;;;;;;;20.00;7.22;;;5.10;99.90;;;;;;4865369;29;20124;-81
2021/12/06 09:30:05;;;;;;;;;;;;;;;;;;;;;
2021/12/06 09:33:27;;;;;;;;;;;;;;;;;;;;;
2021/12/06 09:37:12;;;;;;;;;;;;;;;;;;;;;
2021/12/06 09:40:37;;;;;;;;;;;;;;;;;;;;;
2021/12/06 09:43:38;;;;;;;;;;;;;;;;;;;;;
2021/12/06 09:47:07;;;;;;;;;;;;;;;;;;;;;
2021/12/06 09:55:32;;;;;;;16.67;6.80;;;5.80;99.90;;;;;;4957309;28;20059;-83
2021/12/06 10:02:34;;;;;;;;;;;;;;;;;;;;;
2021/12/06 10:09:52;;;;;;;19.45;7.05;;;5.80;99.90;;;;;;4997630;28;20048;-82
2021/12/06 10:13:33;;;;;;;14.90;7.43;;;5.60;99.90;;;;;;5049616;28;20056;-80
2021/12/06 10:16:40;;;;;;;16.73;5.88;;;6.40;99.90;;;;;;5075729;28;20039;-81
2021/12/06 10:19:48;;;;;;;12.68;6.82;;;5.70;99.90;;;;;;5067292;28;20056;-81
2021/12/06 10:23:36;;;;;;;;;;;;;;;;;;;;;
2021/12/06 10:30:43;;;;;;;18.50;5.88;;;6.20;99.90;;;;;;4975768;28;20050;-84
2021/12/06 10:34:30;;;;;;;16.90;5.60;;;6.10;99.90;;;;;;4995188;28;20049;-83
2021/12/06 10:37:39;;;;;;;;;;;;;;;;;;;;;
2021/12/06 10:41:17;;;;;;;;;;;;;;;;;;;;;
2021/12/06 10:49:47;;;;;;;;;;;;;;;;;;;;;
2021/12/06 11:02:45;;;;;;;13.30;6.70;;;6.40;99.90;;;;;;4857119;29;20056;-83
2021/12/06 11:06:24;;;;;;;19.17;7.47;;;6.50;99.90;;;;;;4853202;29;20044;-82
2021/12/06 11:09:38;;;;;;;13.07;5.68;;;6.70;99.90;;;;;;4988322;22;20355;-79
2021/12/06 11:12:18;;;;;;;17.75;7.07;;;6.50;99.90;;;;;;5040931;28;20060;-78
2021/12/06 11:14:48;;;;;;;20.08;5.68;;;6.50;99.90;;;;;;5083157;28;20051;-79
2021/12/06 11:17:19;;;;;;;13.27;5.57;;;6.50;99.90;;;;;;5084329;28;20427;-79
2021/12/06 11:19:51;;;;;;;6.13;3.80;;;6.90;99.90;;;;;;5077348;28;20051;-79
2021/12/06 11:22:23;;;;;;;5.45;3.35;;;6.50;99.90;;;;;;5078459;28;20049;-78
2021/12/06 11:24:53;;;;;;;20.10;3.88;;;6.40;99.90;;;;;;5063273;28;20051;-81
2021/12/06 11:27:39;;;;;;;8.70;5.18;;;6.40;99.90;;;;;;5075828;28;20044;-80
2021/12/06 11:30:11;;;;;;;11.85;4.00;;;6.40;99.90;;;;;;5034596;28;20448;-80
2021/12/06 11:32:43;;;;;;;8.15;4.10;;;6.30;99.90;;;;;;5062831;28;20049;-81
2021/12/06 11:35:15;;;;;;;10.75;3.65;;;6.30;99.90;;;;;;5054750;28;20049;-81
2021/12/06 11:37:52;;;;;;;9.52;3.67;;;6.40;99.90;;;;;;5055912;28;20048;-78
2021/12/06 11:40:26;;;;;;;6.72;3.60;;;6.40;99.90;;;;;;5046500;28;20871;-79
2021/12/06 11:42:59;;;;;;;14.55;7.03;;;6.40;99.90;;;;;;5033649;28;20040;-81
2021/12/06 11:45:48;;;;;;;10.55;4.35;;;6.40;99.90;;;;;;5049307;28;20048;-79
2021/12/06 11:48:24;;;;;;;14.75;5.95;;;6.50;99.90;;;;;;5032510;28;20060;-80
2021/12/06 11:51:00;;;;;;;18.35;5.93;;;6.50;99.90;;;;;;5015609;28;20064;-80
2021/12/06 11:53:32;;;;;;;16.45;5.10;;;6.50;99.90;;;;;;5049990;28;20124;-80
2021/12/06 11:56:05;;;;;;;13.27;6.13;;;6.60;99.90;;;;;;5045343;28;20052;-80
2021/12/06 11:58:40;;;;;;;12.50;5.93;;;6.70;99.90;;;;;;5047965;28;20072;-80
2021/12/06 12:01:18;;;;;;;16.75;5.70;;;7.00;99.90;;;;;;5050352;28;20052;-80
2021/12/06 12:03:49;;;;;;;14.98;6.78;;;6.70;99.90;;;;;;5048628;28;20063;-81
2021/12/06 12:06:26;;;;;;;14.63;5.70;;;7.50;99.90;;;;;;5045814;28;20064;-83
2021/12/06 12:09:24;;;;;;;13.20;7.80;;;6.80;99.90;;;;;;5072381;28;20056;-79
2021/12/06 12:12:11;;;;;;;12.48;6.50;;;6.80;99.90;;;;;;5087659;28;20541;-79
2021/12/06 12:14:46;;;;;;;17.38;5.53;;;6.80;99.90;;;;;;5047733;28;20044;-80
2021/12/06 12:17:15;;;;;;;16.52;7.05;;;6.80;99.90;;;;;;5067071;28;20479;-79
2021/12/06 12:19:45;;;;;;;17.42;6.82;;;6.90;99.90;;;;;;5049559;28;20063;-78
2021/12/06 12:22:14;;;;;;;11.00;5.03;;;6.80;99.90;;;;;;5050688;28;20051;-77
2021/12/06 12:24:46;;;;;;;15.23;5.82;;;6.80;99.90;;;;;;5069083;28;20052;-81
2021/12/06 12:28:08;;;;;;;14.20;5.25;;;6.80;99.90;;;;;;5087848;28;20048;-81
2021/12/06 12:30:04;;;;;;;17.10;4.97;;;6.80;99.90;;;;;;5060758;28;20055;-81
2021/12/06 12:32:32;;;;;;;11.82;4.97;;;6.80;99.90;;;;;;5060970;28;20048;-80
2021/12/06 12:35:06;;;;;;;10.57;5.15;;;6.80;99.90;;;;;;5068271;28;20048;-80
2021/12/06 12:37:37;;;;;;;11.50;4.47;;;6.80;99.90;;;;;;5065816;28;20502;-80
2021/12/06 12:40:08;;;;;;;7.90;4.10;;;6.80;99.90;;;;;;5066907;28;20062;-81
2021/12/06 12:42:37;;;;;;;12.35;4.18;;;6.90;99.90;;;;;;5049345;28;20044;-81
2021/12/06 12:45:06;;;;;;;16.58;3.90;;;6.90;99.90;;;;;;5066636;28;20056;-80
2021/12/06 12:47:35;;;;;;;6.40;3.72;;;6.90;99.90;;;;;;5066794;28;20111;-78
2021/12/06 12:50:12;;;;;;;9.90;2.90;;;7.00;99.90;;;;;;5046200;28;20048;-81
2021/12/06 12:52:45;;;;;;;7.18;3.05;;;7.00;99.90;;;;;;5066166;28;20042;-79
2021/12/06 12:55:32;;;;;;;10.02;3.40;;;7.00;99.90;;;;;;5064803;28;20550;-80
2021/12/06 12:58:25;;;;;;;10.60;3.65;;;7.00;99.90;;;;;;5051431;28;20044;-81
2021/12/06 13:01:01;;;;;;;6.50;3.38;;;6.20;99.90;;;;;;5050087;28;20060;-81
2021/12/06 13:03:39;;;;;;;13.30;3.72;;;7.10;99.90;;;;;;5033774;28;20399;-79
2021/12/06 13:06:20;;;;;;;7.70;2.60;;;7.10;99.90;;;;;;5051785;28;20048;-79
2021/12/06 13:08:52;;;;;;;15.63;6.00;;;7.10;99.90;;;;;;5048623;28;20630;-80
2021/12/06 13:11:23;;;;;;;7.43;2.75;;;8.80;99.90;;;;;;5065805;28;20048;-82
2021/12/06 13:13:51;;;;;;;4.75;2.28;;;7.20;99.90;;;;;;5057094;28;20049;-79
2021/12/06 13:16:57;;;;;;;8.05;2.58;;;7.20;99.90;;;;;;5073110;28;20047;-81
2021/12/06 13:19:49;;;;;;;8.20;2.15;;;7.30;99.90;;;;;;5040606;28;20048;-82
2021/12/06 13:22:28;;;;;;;5.43;1.95;;;7.30;99.90;;;;;;5063818;28;20055;-83
2021/12/06 13:25:05;;;;;;;5.35;2.17;;;7.30;99.90;;;;;;5045842;28;20131;-83
2021/12/06 13:27:57;;;;;;;4.18;2.13;;;7.30;99.90;;;;;;5067407;28;20044;-79
2021/12/06 13:30:31;;;;;;;5.10;1.85;;;7.30;99.90;;;;;;5061226;28;20041;-82
2021/12/06 13:33:01;;;;;;;8.02;3.30;;;7.30;99.90;;;;;;5050606;28;20531;-85
2021/12/06 13:35:36;;;;;;;4.90;2.00;;;8.00;99.90;;;;;;5046901;28;20044;-81
2021/12/06 13:38:22;;;;;;;6.35;2.05;;;7.30;99.90;;;;;;5067992;28;20047;-80
2021/12/06 13:40:55;;;;;;;6.50;2.42;;;7.40;99.90;;;;;;5050024;28;20060;-82
2021/12/06 13:43:30;;;;;;;4.60;1.98;;;7.30;99.90;;;;;;5056776;28;20146;-80
2021/12/06 13:46:22;;;;;;;4.30;1.75;;;7.30;99.90;;;;;;5063211;28;20373;-82
2021/12/06 13:48:55;;;;;;;3.85;1.58;;;7.30;99.90;;;;;;5050990;28;20040;-84
2021/12/06 13:51:45;;;;;;;6.07;2.05;;;7.30;99.90;;;;;;5028816;28;20318;-82
2021/12/06 13:54:25;;;;;;;4.50;1.63;;;7.30;99.90;;;;;;5048443;28;20514;-83
2021/12/06 13:57:02;;;;;;;6.05;1.98;;;7.30;99.90;;;;;;5042185;28;20135;-82
2021/12/06 13:59:41;;;;;;;6.28;1.60;;;7.30;99.90;;;;;;5044339;28;20053;-81
2021/12/06 14:02:24;;;;;;;4.75;2.63;;;7.20;99.90;;;;;;5059995;28;20045;-84
2021/12/06 14:04:57;;;;;;;3.30;1.92;;;7.20;99.90;;;;;;5073719;28;20440;-83
2021/12/06 14:07:26;;;;;;;4.55;1.88;;;7.50;99.90;;;;;;5038424;28;20048;-82
2021/12/06 14:09:58;;;;;;;11.07;3.58;;;7.20;99.90;;;;;;5053319;28;20068;-82
2021/12/06 14:12:34;;;;;;;3.65;1.88;;;7.20;99.90;;;;;;5052586;28;20044;-80
2021/12/06 14:15:24;;;;;;;3.83;1.92;;;7.10;99.90;;;;;;5013631;28;20063;-81
2021/12/06 14:17:54;;;;;;;3.95;1.83;;;7.10;99.90;;;;;;5014675;28;20084;-81
2021/12/06 14:20:23;;;;;;;4.63;2.10;;;7.10;99.90;;;;;;5066989;28;20049;-82
2021/12/06 14:22:51;;;;;;;6.03;2.10;;;7.10;99.90;;;;;;5054567;28;20045;-81
2021/12/06 14:25:20;;;;;;;3.97;1.75;;;7.00;99.90;;;;;;5053544;28;20045;-82
2021/12/06 14:27:49;;;;;;;3.58;1.60;;;7.00;99.90;;;;;;5048281;28;20056;-80
2021/12/06 14:30:20;;;;;;;1.80;1.60;;;7.00;99.90;;;;;;5050568;28;20044;-80
2021/12/06 14:32:53;;;;;;;5.47;2.10;;;6.70;99.90;;;;;;5044839;28;20052;-80
2021/12/06 14:35:23;;;;;;;3.20;2.67;;;7.00;99.90;;;;;;5060495;28;20056;-79
2021/12/06 14:37:53;;;;;;;2.88;1.77;;;6.90;99.90;;;;;;5062902;28;20131;-82
2021/12/06 14:40:22;;;;;;;6.85;1.67;;;7.00;99.90;;;;;;5067847;28;20049;-80
2021/12/06 14:42:50;;;;;;;5.90;1.77;;;6.90;99.90;;;;;;5069665;28;20051;-79
2021/12/06 14:45:20;;;;;;;5.07;1.83;;;7.00;99.90;;;;;;5051122;28;20056;-85
2021/12/06 14:47:58;;;;;;;8.70;1.83;;;6.90;99.90;;;;;;5066865;28;20033;-81
2021/12/06 14:50:38;;;;;;;2.80;1.73;;;6.90;99.90;;;;;;5066153;28;20528;-81
2021/12/06 14:53:17;;;;;;;2.45;1.75;;;7.50;99.90;;;;;;5059122;28;20049;-81
2021/12/06 14:55:52;;;;;;;1.80;1.70;;;6.90;99.90;;;;;;5034489;28;20056;-80
2021/12/06 14:58:40;;;;;;;6.07;1.60;;;6.90;99.90;;;;;;5062992;28;20041;-84
2021/12/06 15:01:15;;;;;;;2.35;1.55;;;6.90;99.90;;;;;;5057838;28;20064;-81
2021/12/06 15:03:48;;;;;;;4.97;1.90;;;6.90;99.90;;;;;;5055101;28;20075;-81
2021/12/06 15:06:16;;;;;;;2.80;2.10;;;6.90;99.90;;;;;;5054540;28;20049;-82
2021/12/06 15:08:48;;;;;;;13.68;2.70;;;6.90;99.90;;;;;;5073722;28;20052;-80
2021/12/06 15:11:18;;;;;;;;;;;6.90;99.90;;;;;;5056162;28;20044;-84
2021/12/06 15:13:49;;;;;;;1.50;1.40;;;6.90;99.90;;;;;;5066470;28;19942;-82
2021/12/06 15:16:19;;;;;;;2.20;1.58;;;7.00;99.90;;;;;;5012992;28;20054;-82
2021/12/06 15:18:50;;;;;;;2.40;1.90;;;7.00;99.90;;;;;;5038413;28;20044;-80
2021/12/06 15:21:31;;;;;;;4.93;2.30;;;7.00;99.90;;;;;;5042253;28;20057;-80
2021/12/06 15:24:04;;;;;;;3.83;1.70;;;7.10;99.90;;;;;;5039533;28;20037;-82
2021/12/06 15:26:42;;;;;;;3.00;2.03;;;7.10;99.90;;;;;;5041406;28;20044;-79